sensor_id;sensor_type;location;lat;lon;timestamp;pressure;altitude;pressure_sealevel;temperature;humidity
76114;BME280;64845;53.086;5.834;2023-02-28T00:02:08;103305.03;;;3.93;72.54
76114;BME280;64845;53.086;5.834;2023-02-28T00:04:34;103300.66;;;3.93;72.79
76114;BME280;64845;53.086;5.834;2023-02-28T00:07:00;103298.00;;;3.93;72.46
76114;BME280;64845;53.086;5.834;2023-02-28T00:09:25;103295.38;;;3.93;72.71
76114;BME280;64845;53.086;5.834;2023-02-28T00:11:50;103282.19;;;3.95;73.17
76114;BME280;64845;53.086;5.834;2023-02-28T00:14:16;103292.75;;;3.95;72.78
76114;BME280;64845;53.086;5.834;2023-02-28T00:16:41;103287.47;;;3.95;72.62
76114;BME280;64845;53.086;5.834;2023-02-28T00:19:06;103283.09;;;3.96;73.21
76114;BME280;64845;53.086;5.834;2023-02-28T00:21:32;103290.19;;;3.97;73.08
76114;BME280;64845;53.086;5.834;2023-02-28T00:23:57;103284.88;;;3.97;73.03
76114;BME280;64845;53.086;5.834;2023-02-28T00:26:23;103286.69;;;3.98;72.97
76114;BME280;64845;53.086;5.834;2023-02-28T00:28:48;103288.47;;;3.99;72.78
76114;BME280;64845;53.086;5.834;2023-02-28T00:31:14;103283.19;;;3.99;73.21
76114;BME280;64845;53.086;5.834;2023-02-28T00:33:39;103277.84;;;3.97;73.00
76114;BME280;64845;53.086;5.834;2023-02-28T00:36:07;103283.97;;;3.96;72.72
76114;BME280;64845;53.086;5.834;2023-02-28T00:38:32;103283.09;;;3.96;72.99
76114;BME280;64845;53.086;5.834;2023-02-28T00:40:58;103282.19;;;3.95;73.46
76114;BME280;64845;53.086;5.834;2023-02-28T00:43:29;103287.44;;;3.93;73.17
76114;BME280;64845;53.086;5.834;2023-02-28T00:45:55;103277.63;;;3.89;73.03
76114;BME280;64845;53.086;5.834;2023-02-28T00:48:20;103281.03;;;3.85;73.67
76114;BME280;64845;53.086;5.834;2023-02-28T00:50:48;103289.75;;;3.81;73.76
76114;BME280;64845;53.086;5.834;2023-02-28T00:53:14;103286.09;;;3.77;73.88
76114;BME280;64845;53.086;5.834;2023-02-28T00:55:39;103290.44;;;3.75;73.33
76114;BME280;64845;53.086;5.834;2023-02-28T00:58:05;103285.97;;;3.73;73.88
76114;BME280;64845;53.086;5.834;2023-02-28T01:00:30;103286.00;;;3.74;73.63
76114;BME280;64845;53.086;5.834;2023-02-28T01:02:56;103289.50;;;3.73;73.68
76114;BME280;64845;53.086;5.834;2023-02-28T01:05:21;103293.91;;;3.73;73.79
76114;BME280;64845;53.086;5.834;2023-02-28T01:07:46;103292.09;;;3.72;73.41
76114;BME280;64845;53.086;5.834;2023-02-28T01:10:12;103296.53;;;3.73;74.20
76114;BME280;64845;53.086;5.834;2023-02-28T01:12:37;103297.44;;;3.73;74.21
76114;BME280;64845;53.086;5.834;2023-02-28T01:15:03;103289.50;;;3.73;74.29
76114;BME280;64845;53.086;5.834;2023-02-28T01:17:29;103288.66;;;3.74;73.96
76114;BME280;64845;53.086;5.834;2023-02-28T01:19:55;103286.91;;;3.75;74.09
76114;BME280;64845;53.086;5.834;2023-02-28T01:22:21;103283.44;;;3.76;73.82
76114;BME280;64845;53.086;5.834;2023-02-28T01:24:46;103292.22;;;3.76;74.25
76114;BME280;64845;53.086;5.834;2023-02-28T01:27:12;103288.75;;;3.77;74.38
76114;BME280;64845;53.086;5.834;2023-02-28T01:29:38;103287.88;;;3.77;74.74
76114;BME280;64845;53.086;5.834;2023-02-28T01:32:04;103282.59;;;3.78;74.73
76114;BME280;64845;53.086;5.834;2023-02-28T01:34:29;103272.94;;;3.79;74.52
76114;BME280;64845;53.086;5.834;2023-02-28T01:36:55;103272.03;;;3.78;74.44
76114;BME280;64845;53.086;5.834;2023-02-28T01:39:20;103264.06;;;3.77;74.82
76114;BME280;64845;53.086;5.834;2023-02-28T01:41:45;103255.31;;;3.78;74.52
76114;BME280;64845;53.086;5.834;2023-02-28T01:47:14;103242.94;;;3.77;74.70
76114;BME280;64845;53.086;5.834;2023-02-28T01:49:40;103253.50;;;3.77;74.64
76114;BME280;64845;53.086;5.834;2023-02-28T01:52:06;103255.31;;;3.78;74.32
76114;BME280;64845;53.086;5.834;2023-02-28T01:54:34;103236.81;;;3.78;74.67
76114;BME280;64845;53.086;5.834;2023-02-28T01:57:07;103235.88;;;3.77;74.65
76114;BME280;64845;53.086;5.834;2023-02-28T01:59:35;103236.81;;;3.78;74.82
76114;BME280;64845;53.086;5.834;2023-02-28T02:02:03;103244.72;;;3.78;74.44
76114;BME280;64845;53.086;5.834;2023-02-28T02:04:37;103237.69;;;3.78;74.84
76114;BME280;64845;53.086;5.834;2023-02-28T02:07:04;103236.88;;;3.81;74.69
76114;BME280;64845;53.086;5.834;2023-02-28T02:09:29;103248.38;;;3.83;74.73
76114;BME280;64845;53.086;5.834;2023-02-28T02:11:55;103241.31;;;3.82;74.93
76114;BME280;64845;53.086;5.834;2023-02-28T02:14:45;103247.53;;;3.84;74.90
76114;BME280;64845;53.086;5.834;2023-02-28T02:20:26;103239.66;;;3.86;74.86
76114;BME280;64845;53.086;5.834;2023-02-28T02:25:26;103246.66;;;3.85;75.01
76114;BME280;64845;53.086;5.834;2023-02-28T02:39:06;103226.47;;;3.87;75.05
76114;BME280;64845;53.086;5.834;2023-02-28T02:41:43;103226.53;;;3.89;75.33
76114;BME280;64845;53.086;5.834;2023-02-28T02:44:36;103224.75;;;3.88;75.20
76114;BME280;64845;53.086;5.834;2023-02-28T02:47:11;103225.53;;;3.85;75.26
76114;BME280;64845;53.086;5.834;2023-02-28T02:49:40;103228.13;;;3.84;75.54
76114;BME280;64845;53.086;5.834;2023-02-28T02:52:10;103224.59;;;3.83;75.49
76114;BME280;64845;53.086;5.834;2023-02-28T02:54:40;103219.28;;;3.83;75.61
76114;BME280;64845;53.086;5.834;2023-02-28T02:57:22;103224.59;;;3.83;75.24
76114;BME280;64845;53.086;5.834;2023-02-28T02:59:50;103214.91;;;3.82;75.76
76114;BME280;64845;53.086;5.834;2023-02-28T03:02:20;103213.09;;;3.81;75.44
76114;BME280;64845;53.086;5.834;2023-02-28T03:04:52;103217.47;;;3.81;75.47
76114;BME280;64845;53.086;5.834;2023-02-28T03:07:18;103225.41;;;3.81;76.05
76114;BME280;64845;53.086;5.834;2023-02-28T03:09:54;103223.63;;;3.80;75.53
76114;BME280;64845;53.086;5.834;2023-02-28T03:12:21;103220.97;;;3.80;75.39
76114;BME280;64845;53.086;5.834;2023-02-28T03:20:15;103219.19;;;3.78;75.76
76114;BME280;64845;53.086;5.834;2023-02-28T03:22:52;103213.81;;;3.75;75.71
76114;BME280;64845;53.086;5.834;2023-02-28T03:25:38;103220.88;;;3.76;75.67
76114;BME280;64845;53.086;5.834;2023-02-28T03:30:49;103219.28;;;3.83;76.10
76114;BME280;64845;53.086;5.834;2023-02-28T03:33:23;103218.50;;;3.86;76.45
76114;BME280;64845;53.086;5.834;2023-02-28T03:35:55;103209.75;;;3.88;76.26
76114;BME280;64845;53.086;5.834;2023-02-28T03:38:29;103218.63;;;3.90;76.14
76114;BME280;64845;53.086;5.834;2023-02-28T03:41:19;103214.25;;;3.91;76.10
76114;BME280;64845;53.086;5.834;2023-02-28T03:44:32;103210.78;;;3.93;76.61
76114;BME280;64845;53.086;5.834;2023-02-28T03:46:44;103210.81;;;3.95;76.11
76114;BME280;64845;53.086;5.834;2023-02-28T03:49:18;103209.09;;;3.96;76.58
76114;BME280;64845;53.086;5.834;2023-02-28T03:51:46;103210.88;;;3.97;76.03
76114;BME280;64845;53.086;5.834;2023-02-28T03:54:24;103208.31;;;4.00;76.00
76114;BME280;64845;53.086;5.834;2023-02-28T03:56:56;103202.19;;;4.01;76.91
76114;BME280;64845;53.086;5.834;2023-02-28T03:59:30;103203.06;;;4.01;76.69
76114;BME280;64845;53.086;5.834;2023-02-28T04:01:59;103192.47;;;4.01;76.26
76114;BME280;64845;53.086;5.834;2023-02-28T04:04:25;103192.47;;;4.01;76.92
76114;BME280;64845;53.086;5.834;2023-02-28T04:06:51;103195.09;;;4.00;76.67
76114;BME280;64845;53.086;5.834;2023-02-28T04:09:17;103193.25;;;3.97;76.06
76114;BME280;64845;53.086;5.834;2023-02-28T04:11:46;103185.22;;;3.94;76.54
76114;BME280;64845;53.086;5.834;2023-02-28T04:14:14;103191.44;;;3.95;76.31
76114;BME280;64845;53.086;5.834;2023-02-28T04:16:41;103194.06;;;3.95;76.79
76114;BME280;64845;53.086;5.834;2023-02-28T04:19:09;103194.94;;;3.93;76.72
76114;BME280;64845;53.086;5.834;2023-02-28T04:21:39;103201.94;;;3.93;76.44
76114;BME280;64845;53.086;5.834;2023-02-28T04:24:05;103193.97;;;3.91;76.55
76114;BME280;64845;53.086;5.834;2023-02-28T04:26:33;103193.97;;;3.91;76.96
76114;BME280;64845;53.086;5.834;2023-02-28T04:29:00;103201.94;;;3.93;76.87
76114;BME280;64845;53.086;5.834;2023-02-28T04:31:25;103200.22;;;3.93;76.63
76114;BME280;64845;53.086;5.834;2023-02-28T04:33:51;103197.59;;;3.95;76.68
76114;BME280;64845;53.086;5.834;2023-02-28T04:36:17;103202.94;;;3.97;77.13
76114;BME280;64845;53.086;5.834;2023-02-28T04:38:43;103202.09;;;3.98;76.99
76114;BME280;64845;53.086;5.834;2023-02-28T04:41:09;103197.69;;;3.98;76.98
76114;BME280;64845;53.086;5.834;2023-02-28T04:43:34;103202.13;;;3.99;76.98
76114;BME280;64845;53.086;5.834;2023-02-28T04:46:01;103205.69;;;4.00;77.00
76114;BME280;64845;53.086;5.834;2023-02-28T04:48:28;103203.97;;;4.02;77.03
76114;BME280;64845;53.086;5.834;2023-02-28T04:50:54;103208.44;;;4.04;76.76
76114;BME280;64845;53.086;5.834;2023-02-28T04:53:20;103205.81;;;4.06;77.03
76114;BME280;64845;53.086;5.834;2023-02-28T04:55:46;103199.66;;;4.05;77.01
76114;BME280;64845;53.086;5.834;2023-02-28T04:58:12;103196.19;;;4.08;77.59
76114;BME280;64845;53.086;5.834;2023-02-28T05:00:38;103208.53;;;4.09;76.93
76114;BME280;64845;53.086;5.834;2023-02-28T05:03:03;103212.97;;;4.10;76.94
76114;BME280;64845;53.086;5.834;2023-02-28T05:05:29;103206.81;;;4.10;77.14
76114;BME280;64845;53.086;5.834;2023-02-28T05:07:54;103207.59;;;4.07;77.14
76114;BME280;64845;53.086;5.834;2023-02-28T05:10:21;103212.00;;;4.06;77.43
76114;BME280;64845;53.086;5.834;2023-02-28T05:12:47;103206.72;;;4.06;77.21
76114;BME280;64845;53.086;5.834;2023-02-28T05:15:14;103209.41;;;4.08;77.51
76114;BME280;64845;53.086;5.834;2023-02-28T05:17:40;103217.38;;;4.10;77.26
76114;BME280;64845;53.086;5.834;2023-02-28T05:20:06;103213.84;;;4.09;77.15
76114;BME280;64845;53.086;5.834;2023-02-28T05:22:32;103205.03;;;4.08;77.55
76114;BME280;64845;53.086;5.834;2023-02-28T05:24:57;103212.91;;;4.07;77.31
76114;BME280;64845;53.086;5.834;2023-02-28T05:27:23;103206.63;;;4.02;77.56
76114;BME280;64845;53.086;5.834;2023-02-28T05:29:48;103217.88;;;3.95;77.48
76114;BME280;64845;53.086;5.834;2023-02-28T05:32:14;103221.25;;;3.89;77.40
76114;BME280;64845;53.086;5.834;2023-02-28T05:34:41;103217.56;;;3.84;77.44
76114;BME280;64845;53.086;5.834;2023-02-28T05:37:11;103218.31;;;3.78;77.48
76114;BME280;64845;53.086;5.834;2023-02-28T05:39:37;103216.41;;;3.74;77.39
76114;BME280;64845;53.086;5.834;2023-02-28T05:42:02;103218.03;;;3.69;77.02
76114;BME280;64845;53.086;5.834;2023-02-28T05:44:28;103217.06;;;3.65;77.12
76114;BME280;64845;53.086;5.834;2023-02-28T05:46:53;103220.44;;;3.59;77.25
76114;BME280;64845;53.086;5.834;2023-02-28T05:49:19;103219.47;;;3.57;77.92
76114;BME280;64845;53.086;5.834;2023-02-28T05:51:44;103226.47;;;3.55;76.79
76114;BME280;64845;53.086;5.834;2023-02-28T05:54:09;103215.59;;;3.44;77.16
76114;BME280;64845;53.086;5.834;2023-02-28T05:56:35;103226.81;;;3.37;77.59
76114;BME280;64845;53.086;5.834;2023-02-28T05:59:02;103226.44;;;3.25;77.26
76114;BME280;64845;53.086;5.834;2023-02-28T06:01:35;103222.78;;;3.20;77.00
76114;BME280;64845;53.086;5.834;2023-02-28T06:04:01;103219.19;;;3.17;77.91
76114;BME280;64845;53.086;5.834;2023-02-28T06:06:27;103235.00;;;3.16;77.58
76114;BME280;64845;53.086;5.834;2023-02-28T06:08:54;103226.97;;;3.13;77.05
76114;BME280;64845;53.086;5.834;2023-02-28T06:11:20;103229.56;;;3.11;77.55
76114;BME280;64845;53.086;5.834;2023-02-28T06:13:45;103225.06;;;3.09;77.63
76114;BME280;64845;53.086;5.834;2023-02-28T06:16:11;103222.41;;;3.07;77.51
76114;BME280;64845;53.086;5.834;2023-02-28T06:18:37;103231.06;;;3.03;77.11
76114;BME280;64845;53.086;5.834;2023-02-28T06:21:02;103230.94;;;2.98;77.33
76114;BME280;64845;53.086;5.834;2023-02-28T06:23:28;103225.44;;;2.92;77.40
76114;BME280;64845;53.086;5.834;2023-02-28T06:25:53;103229.69;;;2.87;77.51
76114;BME280;64845;53.086;5.834;2023-02-28T06:28:21;103234.94;;;2.85;77.24
76114;BME280;64845;53.086;5.834;2023-02-28T06:30:46;103233.09;;;2.83;77.06
76114;BME280;64845;53.086;5.834;2023-02-28T06:33:11;103234.78;;;2.81;77.36
76114;BME280;64845;53.086;5.834;2023-02-28T06:35:37;103239.84;;;2.75;77.13
76114;BME280;64845;53.086;5.834;2023-02-28T06:38:11;103246.72;;;2.69;77.23
76114;BME280;64845;53.086;5.834;2023-02-28T06:40:37;103250.25;;;2.70;77.38
76114;BME280;64845;53.086;5.834;2023-02-28T06:43:02;103266.09;;;2.70;77.18
76114;BME280;64845;53.086;5.834;2023-02-28T06:45:28;103264.28;;;2.69;77.07
76114;BME280;64845;53.086;5.834;2023-02-28T06:47:53;103265.06;;;2.66;77.60
76114;BME280;64845;53.086;5.834;2023-02-28T06:50:19;103277.38;;;2.66;77.31
76114;BME280;64845;53.086;5.834;2023-02-28T06:52:45;103272.94;;;2.65;77.04
76114;BME280;64845;53.086;5.834;2023-02-28T06:55:11;103277.22;;;2.61;77.54
76114;BME280;64845;53.086;5.834;2023-02-28T06:57:36;103287.69;;;2.58;77.06
76114;BME280;64845;53.086;5.834;2023-02-28T07:00:08;103282.28;;;2.55;77.63
76114;BME280;64845;53.086;5.834;2023-02-28T07:02:35;103291.84;;;2.51;77.71
76114;BME280;64845;53.086;5.834;2023-02-28T07:05:00;103291.66;;;2.47;77.22
76114;BME280;64845;53.086;5.834;2023-02-28T07:07:26;103298.59;;;2.43;77.28
76114;BME280;64845;53.086;5.834;2023-02-28T07:09:51;103302.03;;;2.40;77.33
76114;BME280;64845;53.086;5.834;2023-02-28T07:12:17;103303.75;;;2.40;77.29
76114;BME280;64845;53.086;5.834;2023-02-28T07:14:42;103315.09;;;2.37;77.41
76114;BME280;64845;53.086;5.834;2023-02-28T07:17:08;103307.06;;;2.34;77.54
76114;BME280;64845;53.086;5.834;2023-02-28T07:19:34;103307.91;;;2.33;77.25
76114;BME280;64845;53.086;5.834;2023-02-28T07:21:59;103309.66;;;2.33;77.35
76114;BME280;64845;53.086;5.834;2023-02-28T07:24:26;103306.91;;;2.30;77.51
76114;BME280;64845;53.086;5.834;2023-02-28T07:26:53;103309.44;;;2.26;77.37
76114;BME280;64845;53.086;5.834;2023-02-28T07:29:18;103311.25;;;2.28;77.15
76114;BME280;64845;53.086;5.834;2023-02-28T07:31:44;103312.88;;;2.24;77.31
76114;BME280;64845;53.086;5.834;2023-02-28T07:34:09;103317.31;;;2.25;77.45
76114;BME280;64845;53.086;5.834;2023-02-28T07:36:35;103316.34;;;2.23;77.30
76114;BME280;64845;53.086;5.834;2023-02-28T07:39:00;103315.44;;;2.22;77.65
76114;BME280;64845;53.086;5.834;2023-02-28T07:41:25;103315.41;;;2.21;76.95
76114;BME280;64845;53.086;5.834;2023-02-28T07:43:55;103317.97;;;2.19;76.87
76114;BME280;64845;53.086;5.834;2023-02-28T07:46:22;103311.84;;;2.20;77.03
76114;BME280;64845;53.086;5.834;2023-02-28T07:48:47;103318.91;;;2.21;77.47
76114;BME280;64845;53.086;5.834;2023-02-28T07:51:13;103313.72;;;2.23;76.88
76114;BME280;64845;53.086;5.834;2023-02-28T07:53:39;103320.78;;;2.24;77.70
76114;BME280;64845;53.086;5.834;2023-02-28T07:56:05;103312.03;;;2.25;77.21
76114;BME280;64845;53.086;5.834;2023-02-28T07:58:31;103319.16;;;2.28;77.77
76114;BME280;64845;53.086;5.834;2023-02-28T08:00:56;103312.03;;;2.25;77.43
76114;BME280;64845;53.086;5.834;2023-02-28T08:03:23;103317.31;;;2.25;77.97
76114;BME280;64845;53.086;5.834;2023-02-28T08:05:49;103319.06;;;2.26;77.21
76114;BME280;64845;53.086;5.834;2023-02-28T08:08:15;103321.78;;;2.28;77.93
76114;BME280;64845;53.086;5.834;2023-02-28T08:10:41;103319.06;;;2.26;78.09
76114;BME280;64845;53.086;5.834;2023-02-28T08:13:07;103321.78;;;2.28;77.67
76114;BME280;64845;53.086;5.834;2023-02-28T08:15:32;103326.97;;;2.26;77.57
76114;BME280;64845;53.086;5.834;2023-02-28T08:17:58;103330.53;;;2.26;78.00
76114;BME280;64845;53.086;5.834;2023-02-28T08:20:24;103337.59;;;2.28;77.80
76114;BME280;64845;53.086;5.834;2023-02-28T08:22:50;103334.06;;;2.27;77.79
76114;BME280;64845;53.086;5.834;2023-02-28T08:25:15;103335.84;;;2.28;78.19
76114;BME280;64845;53.086;5.834;2023-02-28T08:27:41;103329.69;;;2.28;77.47
76114;BME280;64845;53.086;5.834;2023-02-28T08:30:08;103334.13;;;2.29;77.73
76114;BME280;64845;53.086;5.834;2023-02-28T08:32:34;103345.50;;;2.28;78.12
76114;BME280;64845;53.086;5.834;2023-02-28T08:35:00;103344.59;;;2.27;77.54
76114;BME280;64845;53.086;5.834;2023-02-28T08:37:26;103344.59;;;2.27;77.71
76114;BME280;64845;53.086;5.834;2023-02-28T08:39:52;103341.97;;;2.27;77.90
76114;BME280;64845;53.086;5.834;2023-02-28T08:42:17;103347.19;;;2.25;77.60
76114;BME280;64845;53.086;5.834;2023-02-28T08:44:42;103347.22;;;2.27;77.72
76114;BME280;64845;53.086;5.834;2023-02-28T08:47:08;103345.56;;;2.29;77.57
76114;BME280;64845;53.086;5.834;2023-02-28T08:49:33;103345.50;;;2.28;77.32
76114;BME280;64845;53.086;5.834;2023-02-28T08:51:59;103342.06;;;2.30;78.10
76114;BME280;64845;53.086;5.834;2023-02-28T08:54:24;103348.25;;;2.31;77.54
76114;BME280;64845;53.086;5.834;2023-02-28T08:56:50;103350.91;;;2.31;77.91
76114;BME280;64845;53.086;5.834;2023-02-28T08:59:15;103351.78;;;2.31;78.08
76114;BME280;64845;53.086;5.834;2023-02-28T09:01:41;103349.97;;;2.30;78.49
76114;BME280;64845;53.086;5.834;2023-02-28T09:04:09;103354.50;;;2.33;77.98
76114;BME280;64845;53.086;5.834;2023-02-28T09:06:36;103362.44;;;2.34;78.35
76114;BME280;64845;53.086;5.834;2023-02-28T09:09:01;103357.16;;;2.34;78.06
76114;BME280;64845;53.086;5.834;2023-02-28T09:11:27;103358.84;;;2.32;78.03
76114;BME280;64845;53.086;5.834;2023-02-28T09:13:53;103360.50;;;2.29;78.39
76114;BME280;64845;53.086;5.834;2023-02-28T09:16:20;103355.09;;;2.25;78.26
76114;BME280;64845;53.086;5.834;2023-02-28T09:18:46;103355.97;;;2.26;78.02
76114;BME280;64845;53.086;5.834;2023-02-28T09:21:14;103353.47;;;2.29;78.07
76114;BME280;64845;53.086;5.834;2023-02-28T09:23:44;103350.94;;;2.32;78.13
76114;BME280;64845;53.086;5.834;2023-02-28T09:26:19;103350.25;;;2.38;78.76
76114;BME280;64845;53.086;5.834;2023-02-28T09:28:45;103348.66;;;2.41;78.97
76114;BME280;64845;53.086;5.834;2023-02-28T09:31:17;103356.84;;;2.49;78.32
76114;BME280;64845;53.086;5.834;2023-02-28T09:33:46;103353.50;;;2.55;78.82
76114;BME280;64845;53.086;5.834;2023-02-28T09:36:11;103357.13;;;2.59;78.41
76114;BME280;64845;53.086;5.834;2023-02-28T09:38:36;103352.19;;;2.68;78.92
76114;BME280;64845;53.086;5.834;2023-02-28T09:41:08;103348.88;;;2.74;78.40
76114;BME280;64845;53.086;5.834;2023-02-28T09:43:38;103355.09;;;2.76;79.08
76114;BME280;64845;53.086;5.834;2023-02-28T09:46:54;103361.44;;;2.81;78.51
76114;BME280;64845;53.086;5.834;2023-02-28T09:48:54;103357.38;;;2.91;78.96
76114;BME280;64845;53.086;5.834;2023-02-28T09:53:53;103362.91;;;2.98;78.25
76114;BME280;64845;53.086;5.834;2023-02-28T09:56:24;103366.59;;;3.04;78.67
76114;BME280;64845;53.086;5.834;2023-02-28T09:59:36;103363.19;;;3.08;78.97
76114;BME280;64845;53.086;5.834;2023-02-28T10:06:54;103365.56;;;3.26;78.57
76114;BME280;64845;53.086;5.834;2023-02-28T10:09:30;103364.75;;;3.28;78.88
76114;BME280;64845;53.086;5.834;2023-02-28T10:12:01;103365.94;;;3.38;78.91
76114;BME280;64845;53.086;5.834;2023-02-28T10:14:30;103362.69;;;3.47;78.60
76114;BME280;64845;53.086;5.834;2023-02-28T10:19:50;103351.69;;;3.60;78.91
76114;BME280;64845;53.086;5.834;2023-02-28T10:22:42;103344.81;;;3.67;78.74
76114;BME280;64845;53.086;5.834;2023-02-28T10:25:20;103343.22;;;3.72;78.97
76114;BME280;64845;53.086;5.834;2023-02-28T10:27:46;103327.41;;;3.74;78.74
76114;BME280;64845;53.086;5.834;2023-02-28T10:30:12;103327.50;;;3.77;78.76
76114;BME280;64845;53.086;5.834;2023-02-28T10:32:40;103330.28;;;3.82;78.82
76114;BME280;64845;53.086;5.834;2023-02-28T10:37:34;103340.28;;;3.92;78.15
76114;BME280;64845;53.086;5.834;2023-02-28T10:40:05;103339.50;;;3.96;78.46
76114;BME280;64845;53.086;5.834;2023-02-28T10:42:31;103338.84;;;4.03;78.36
76114;BME280;64845;53.086;5.834;2023-02-28T10:45:13;103339.00;;;4.10;78.36
76114;BME280;64845;53.086;5.834;2023-02-28T10:48:00;103345.28;;;4.13;77.97
76114;BME280;64845;53.086;5.834;2023-02-28T10:53:31;103336.72;;;4.22;77.67
76114;BME280;64845;53.086;5.834;2023-02-28T11:01:36;103329.25;;;4.39;77.02
76114;BME280;64845;53.086;5.834;2023-02-28T11:04:02;103339.13;;;4.46;76.77
76114;BME280;64845;53.086;5.834;2023-02-28T11:06:33;103337.41;;;4.48;76.82
76114;BME280;64845;53.086;5.834;2023-02-28T11:09:02;103334.84;;;4.51;76.39
76114;BME280;64845;53.086;5.834;2023-02-28T11:11:30;103338.38;;;4.52;76.15
76114;BME280;64845;53.086;5.834;2023-02-28T11:14:17;103332.41;;;4.59;75.70
76114;BME280;64845;53.086;5.834;2023-02-28T11:16:45;103330.91;;;4.69;75.84
76114;BME280;64845;53.086;5.834;2023-02-28T11:19:19;103335.53;;;4.78;75.56
76114;BME280;64845;53.086;5.834;2023-02-28T11:22:02;103334.00;;;4.86;75.08
76114;BME280;64845;53.086;5.834;2023-02-28T11:26:57;103328.25;;;5.04;74.99
76114;BME280;64845;53.086;5.834;2023-02-28T11:29:32;103332.00;;;5.14;74.94
76114;BME280;64845;53.086;5.834;2023-02-28T11:32:19;103324.25;;;5.22;74.68
76114;BME280;64845;53.086;5.834;2023-02-28T11:34:46;103329.50;;;5.19;74.80
76114;BME280;64845;53.086;5.834;2023-02-28T11:37:18;103329.50;;;5.19;74.37
76114;BME280;64845;53.086;5.834;2023-02-28T11:39:45;103324.38;;;5.26;74.11
76114;BME280;64845;53.086;5.834;2023-02-28T11:55:56;103322.16;;;5.45;72.77
76114;BME280;64845;53.086;5.834;2023-02-28T12:01:26;103326.63;;;5.49;72.57
76114;BME280;64845;53.086;5.834;2023-02-28T12:06:33;103328.66;;;5.61;72.23
76114;BME280;64845;53.086;5.834;2023-02-28T12:23:38;103306.81;;;6.14;71.13
76114;BME280;64845;53.086;5.834;2023-02-28T12:28:32;103296.63;;;6.38;70.72
76114;BME280;64845;53.086;5.834;2023-02-28T12:31:09;103294.16;;;6.47;70.57
76114;BME280;64845;53.086;5.834;2023-02-28T12:33:40;103289.81;;;6.52;70.47
76114;BME280;64845;53.086;5.834;2023-02-28T12:36:10;103293.47;;;6.59;70.10
76114;BME280;64845;53.086;5.834;2023-02-28T12:38:46;103290.88;;;6.62;69.70
76114;BME280;64845;53.086;5.834;2023-02-28T12:41:16;103286.50;;;6.65;69.67
76114;BME280;64845;53.086;5.834;2023-02-28T12:43:50;103294.63;;;6.75;69.28
76114;BME280;64845;53.086;5.834;2023-02-28T12:46:45;103289.47;;;6.84;69.27
76114;BME280;64845;53.086;5.834;2023-02-28T12:49:47;103283.44;;;6.94;68.90
76114;BME280;64845;53.086;5.834;2023-02-28T12:52:20;103281.78;;;7.03;68.58
76114;BME280;64845;53.086;5.834;2023-02-28T12:55:04;103288.13;;;7.13;68.43
76114;BME280;64845;53.086;5.834;2023-02-28T12:57:42;103277.56;;;7.17;68.28
76114;BME280;64845;53.086;5.834;2023-02-28T13:00:16;103282.94;;;7.20;68.04
76114;BME280;64845;53.086;5.834;2023-02-28T13:10:46;103265.88;;;7.04;66.95
76114;BME280;64845;53.086;5.834;2023-02-28T13:13:18;103265.91;;;7.07;66.82
76114;BME280;64845;53.086;5.834;2023-02-28T13:16:04;103264.16;;;7.09;66.91
76114;BME280;64845;53.086;5.834;2023-02-28T13:20:55;103258.28;;;7.31;66.72
76114;BME280;64845;53.086;5.834;2023-02-28T13:26:07;103251.53;;;7.54;66.20
76114;BME280;64845;53.086;5.834;2023-02-28T13:31:13;103245.56;;;7.77;65.92
76114;BME280;64845;53.086;5.834;2023-02-28T13:38:52;103242.25;;;7.98;65.63
76114;BME280;64845;53.086;5.834;2023-02-28T13:44:19;103247.53;;;7.95;65.40
76114;BME280;64845;53.086;5.834;2023-02-28T14:02:45;103234.41;;;8.09;64.15
76114;BME280;64845;53.086;5.834;2023-02-28T14:05:17;103243.34;;;8.16;63.90
76114;BME280;64845;53.086;5.834;2023-02-28T14:07:49;103234.50;;;8.22;63.47
76114;BME280;64845;53.086;5.834;2023-02-28T14:18:21;103234.72;;;8.43;63.03
76114;BME280;64845;53.086;5.834;2023-02-28T14:20:56;103228.59;;;8.51;63.04
76114;BME280;64845;53.086;5.834;2023-02-28T14:31:29;103228.63;;;8.57;61.98
76114;BME280;64845;53.086;5.834;2023-02-28T14:36:43;103229.56;;;8.62;61.64
76114;BME280;64845;53.086;5.834;2023-02-28T14:39:22;103233.13;;;8.66;61.77
76114;BME280;64845;53.086;5.834;2023-02-28T14:41:49;103229.66;;;8.71;61.53
76114;BME280;64845;53.086;5.834;2023-02-28T14:44:21;103240.31;;;8.77;61.66
76114;BME280;64845;53.086;5.834;2023-02-28T14:46:50;103227.84;;;8.73;61.53
76114;BME280;64845;53.086;5.834;2023-02-28T14:51:43;103231.44;;;8.75;60.85
76114;BME280;64845;53.086;5.834;2023-02-28T14:54:16;103218.16;;;8.80;60.90
76114;BME280;64845;53.086;5.834;2023-02-28T14:56:49;103215.53;;;8.85;60.86
76114;BME280;64845;53.086;5.834;2023-02-28T15:01:49;103212.94;;;8.96;60.59
76114;BME280;64845;53.086;5.834;2023-02-28T15:04:25;103213.81;;;8.96;60.67
76114;BME280;64845;53.086;5.834;2023-02-28T15:07:09;103211.97;;;8.87;60.00
76114;BME280;64845;53.086;5.834;2023-02-28T15:09:35;103216.34;;;8.76;59.21
76114;BME280;64845;53.086;5.834;2023-02-28T15:12:00;103215.41;;;8.66;59.44
76114;BME280;64845;53.086;5.834;2023-02-28T15:14:26;103214.44;;;8.56;58.78
76114;BME280;64845;53.086;5.834;2023-02-28T15:16:57;103215.09;;;8.34;58.49
76114;BME280;64845;53.086;5.834;2023-02-28T15:19:29;103215.00;;;8.23;58.83
76114;BME280;64845;53.086;5.834;2023-02-28T15:22:02;103211.44;;;8.19;58.58
76114;BME280;64845;53.086;5.834;2023-02-28T15:24:43;103214.06;;;8.16;58.71
76114;BME280;64845;53.086;5.834;2023-02-28T15:27:20;103201.66;;;8.20;58.72
76114;BME280;64845;53.086;5.834;2023-02-28T15:29:50;103206.97;;;8.18;59.01
76114;BME280;64845;53.086;5.834;2023-02-28T15:32:31;103206.97;;;8.20;58.70
76114;BME280;64845;53.086;5.834;2023-02-28T15:34:58;103199.91;;;8.22;58.69
76114;BME280;64845;53.086;5.834;2023-02-28T15:37:37;103206.16;;;8.27;58.83
76114;BME280;64845;53.086;5.834;2023-02-28T15:40:22;103200.91;;;8.33;58.73
76114;BME280;64845;53.086;5.834;2023-02-28T15:43:13;103200.06;;;8.39;59.17